Time;durP1;ratioP1;P1;durP2;ratioP2;P2;SDS_P1;SDS_P2;PMS_P1;PMS_P2;Temp;Humidity;BMP_temperature;BMP_pressure;BME280_temperature;BME280_humidity;BME280_pressure;Samples;Min_cycle;Max_cycle;Signal;HPM_P1;HPM_P2
2023/11/01 00:01:57;;;;;;;6.68;5.40;;;;;;;11.69;90.56;97576.88;5057388;28;20028;-74
2023/11/01 00:04:22;;;;;;;9.63;6.35;;;;;;;11.64;90.12;97560.63;5073667;28;20028;-75
2023/11/01 00:06:48;;;;;;;10.73;6.40;;;;;;;11.68;90.87;97577.94;5074177;28;20023;-75
2023/11/01 00:09:13;;;;;;;8.85;6.35;;;;;;;11.64;91.17;97571.44;5074235;28;20118;-75
2023/11/01 00:11:38;;;;;;;8.95;7.00;;;;;;;11.73;90.55;97580.66;5074058;28;20055;-75
2023/11/01 00:14:04;;;;;;;8.02;7.22;;;;;;;11.72;90.83;97584.41;5079670;28;20042;-75
2023/11/01 00:16:30;;;;;;;10.15;7.13;;;;;;;11.72;90.95;97587.91;5081249;28;20035;-74
2023/11/01 00:18:56;;;;;;;11.52;7.35;;;;;;;11.69;91.02;97579.56;5098461;28;20110;-75
2023/11/01 00:21:21;;;;;;;8.63;6.90;;;;;;;11.64;91.58;97604.63;5073335;28;20130;-74
2023/11/01 00:23:47;;;;;;;9.60;7.10;;;;;;;11.68;91.13;97583.34;5086728;28;20051;-75
2023/11/01 00:26:12;;;;;;;8.43;6.45;;;;;;;11.58;91.22;97572.47;5056981;28;20391;-75
2023/11/01 00:28:38;;;;;;;7.93;6.78;;;;;;;11.58;91.28;97578.69;5076544;28;20046;-75
2023/11/01 00:31:04;;;;;;;7.47;6.50;;;;;;;11.74;91.38;97599.25;5077037;28;20019;-74
2023/11/01 00:33:29;;;;;;;7.93;6.65;;;;;;;11.66;90.96;97585.47;5070301;28;20056;-74
2023/11/01 00:35:55;;;;;;;8.40;6.55;;;;;;;11.65;91.34;97578.44;5043223;28;20023;-75
2023/11/01 00:38:23;;;;;;;8.32;6.50;;;;;;;11.65;91.55;97584.63;5096869;28;20407;-74
2023/11/01 00:40:49;;;;;;;6.70;6.07;;;;;;;11.74;90.98;97585.75;5081351;28;20028;-74
2023/11/01 00:43:14;;;;;;;8.02;6.85;;;;;;;11.68;91.69;97583.34;5056357;28;20035;-75
2023/11/01 00:45:40;;;;;;;10.30;5.32;;;;;;;11.70;91.56;97591.97;5056805;28;20031;-75
2023/11/01 00:48:05;;;;;;;10.27;6.38;;;;;;;11.69;91.24;97584.97;5056757;28;20381;-75
2023/11/01 00:50:31;;;;;;;5.93;5.30;;;;;;;11.75;91.11;97594.69;5091296;28;20494;-74
2023/11/01 00:52:56;;;;;;;7.13;5.70;;;;;;;11.79;91.27;97601.16;5073157;28;20452;-75
2023/11/01 00:55:21;;;;;;;7.10;5.90;;;;;;;11.49;91.11;97552.50;5085474;28;20064;-75
2023/11/01 00:57:48;;;;;;;8.60;5.78;;;;;;;11.71;90.86;97588.19;5087903;28;20760;-75
2023/11/01 01:00:14;;;;;;;8.27;4.90;;;;;;;11.70;90.69;97586.56;5073399;28;20020;-75
2023/11/01 01:02:40;;;;;;;6.88;5.45;;;;;;;11.66;90.84;97580.06;5062527;28;20032;-74
2023/11/01 01:05:06;;;;;;;7.47;5.10;;;;;;;11.68;91.28;97588.72;5079302;28;20022;-74
2023/11/01 01:07:31;;;;;;;5.95;4.88;;;;;;;11.74;90.50;97598.44;5098259;28;20122;-74
2023/11/01 01:09:56;;;;;;;8.98;5.15;;;;;;;11.78;91.13;97599.53;5098094;28;20080;-74
2023/11/01 01:12:22;;;;;;;13.15;4.80;;;;;;;11.77;90.92;97598.72;5080009;28;20131;-74
2023/11/01 01:14:47;;;;;;;8.05;4.82;;;;;;;11.73;90.57;97596.84;5079171;28;20070;-74
2023/11/01 01:17:13;;;;;;;9.07;5.40;;;;;;;11.63;90.79;97581.41;5061372;28;20062;-74
2023/11/01 01:19:38;;;;;;;5.30;4.80;;;;;;;11.70;90.79;97581.16;5055464;28;20439;-75
2023/11/01 01:22:04;;;;;;;8.45;4.68;;;;;;;11.64;90.38;97574.13;5061577;28;20052;-76
2023/11/01 01:24:29;;;;;;;7.93;5.30;;;;;;;11.75;90.51;97595.50;5068582;28;20038;-75
2023/11/01 01:26:55;;;;;;;8.13;4.70;;;;;;;11.73;90.61;97586.88;5076510;28;20036;-75
2023/11/01 01:29:20;;;;;;;5.88;4.35;;;;;;;11.68;90.12;97572.53;5059837;28;20028;-75
2023/11/01 01:31:46;;;;;;;5.63;4.65;;;;;;;11.70;90.45;97575.78;5064959;28;20693;-75
2023/11/01 01:34:11;;;;;;;9.20;4.88;;;;;;;11.53;90.12;97548.19;5078976;28;20107;-75
2023/11/01 01:36:36;;;;;;;7.20;4.05;;;;;;;11.69;90.35;97574.19;5059513;28;20036;-75
2023/11/01 01:39:02;;;;;;;8.18;4.35;;;;;;;11.74;90.33;97582.25;5076190;28;20020;-75
2023/11/01 01:41:27;;;;;;;6.18;3.70;;;;;;;11.75;90.03;97583.88;5059581;28;20032;-75
2023/11/01 01:43:53;;;;;;;8.23;3.88;;;;;;;11.62;90.56;97574.38;5066673;28;20027;-73
2023/11/01 01:46:18;;;;;;;5.35;3.70;;;;;;;11.61;90.41;97571.94;5110871;28;20080;-74
2023/11/01 01:48:45;;;;;;;5.47;3.35;;;;;;;11.74;90.46;97584.94;5079294;28;20436;-73
2023/11/01 01:51:11;;;;;;;4.38;3.63;;;;;;;11.70;89.62;97583.88;5062471;28;20119;-75
2023/11/01 01:53:39;;;;;;;5.57;3.40;;;;;;;11.62;89.82;97565.50;5062037;28;20039;-72
2023/11/01 01:56:06;;;;;;;6.75;3.85;;;;;;;11.64;90.38;97566.03;5062354;28;20031;-74
2023/11/01 01:58:31;;;;;;;5.82;3.58;;;;;;;11.72;89.94;97581.72;5062406;28;20022;-73
2023/11/01 02:00:58;;;;;;;6.18;3.50;;;;;;;11.62;90.03;97560.88;5078989;28;20035;-72
2023/11/01 02:03:24;;;;;;;5.45;3.33;;;;;;;11.67;89.71;97568.19;5078596;28;20016;-74
2023/11/01 02:05:49;;;;;;;5.10;3.50;;;;;;;11.54;89.83;97550.63;5095745;28;20046;-74
2023/11/01 02:08:15;;;;;;;6.25;3.70;;;;;;;11.65;90.26;97567.63;5078810;28;20024;-73
2023/11/01 02:10:41;;;;;;;4.18;3.25;;;;;;;11.62;90.31;97563.59;5062072;28;20031;-74
2023/11/01 02:13:11;;;;;;;6.90;3.53;;;;;;;11.69;89.96;97563.38;5078192;28;20020;-73
2023/11/01 02:15:36;;;;;;;9.18;3.33;;;;;;;11.55;89.80;97548.75;5073771;28;20403;-75
2023/11/01 02:18:01;;;;;;;5.85;3.40;;;;;;;11.60;89.69;97554.13;5058952;28;20024;-75
2023/11/01 02:20:27;;;;;;;3.90;3.30;;;;;;;11.42;90.06;97527.66;5075140;28;20028;-75
2023/11/01 02:22:55;;;;;;;4.40;2.90;;;;;;;11.58;89.66;97550.91;5058676;28;20098;-75
2023/11/01 02:25:21;;;;;;;5.65;3.22;;;;;;;11.39;90.08;97518.22;5077091;28;20023;-75
2023/11/01 02:27:46;;;;;;;6.03;3.20;;;;;;;11.62;89.54;97557.41;5095690;28;20422;-75
2023/11/01 02:30:16;;;;;;;4.45;3.33;;;;;;;11.61;89.73;97555.78;5062083;28;20039;-73
2023/11/01 02:32:42;;;;;;;5.35;3.22;;;;;;;11.59;89.59;97557.94;5079145;28;20031;-73
2023/11/01 02:35:08;;;;;;;3.90;2.80;;;;;;;11.34;89.82;97518.22;5094909;28;20051;-74
2023/11/01 02:37:33;;;;;;;3.55;2.83;;;;;;;11.58;89.43;97545.50;5106234;28;20019;-74
2023/11/01 02:39:59;;;;;;;3.92;2.90;;;;;;;11.39;89.51;97525.53;5061874;28;20165;-73
2023/11/01 02:42:24;;;;;;;3.67;3.10;;;;;;;11.58;89.82;97549.03;5083397;28;20044;-75
2023/11/01 02:44:49;;;;;;;4.90;3.03;;;;;;;11.50;89.14;97537.94;5096214;28;20402;-75
2023/11/01 02:47:15;;;;;;;4.68;3.10;;;;;;;11.48;89.51;97518.53;5068648;28;20028;-74
2023/11/01 02:49:40;;;;;;;8.60;3.13;;;;;;;11.59;89.04;97539.06;5075978;28;20043;-73
2023/11/01 02:52:05;;;;;;;9.82;3.60;;;;;;;11.63;89.50;97537.44;5087007;28;20449;-73
2023/11/01 02:54:31;;;;;;;3.28;2.97;;;;;;;11.56;89.21;97531.47;5112610;28;20031;-72
2023/11/01 02:56:57;;;;;;;4.13;3.20;;;;;;;11.62;89.23;97531.22;5094855;28;20604;-72
2023/11/01 02:59:23;;;;;;;6.20;3.30;;;;;;;11.62;88.75;97530.44;5072813;28;20038;-72
2023/11/01 03:01:50;;;;;;;6.15;3.38;;;;;;;11.63;88.80;97538.25;5070307;28;20028;-72
2023/11/01 03:04:15;;;;;;;5.07;3.38;;;;;;;11.61;89.18;97528.81;5080872;28;20050;-72
2023/11/01 03:06:40;;;;;;;3.75;2.88;;;;;;;11.53;88.93;97521.22;5094506;28;20475;-71
2023/11/01 03:09:06;;;;;;;4.70;3.10;;;;;;;11.57;88.82;97528.53;5093864;28;20042;-71
2023/11/01 03:11:31;;;;;;;4.40;3.05;;;;;;;11.59;88.96;97533.66;5086406;28;20436;-71
2023/11/01 03:13:57;;;;;;;5.25;3.28;;;;;;;11.57;89.08;97528.53;5098905;28;20070;-72
2023/11/01 03:16:22;;;;;;;5.72;3.67;;;;;;;11.55;88.77;97532.56;5112708;28;20559;-72
2023/11/01 03:18:48;;;;;;;6.25;3.33;;;;;;;11.50;89.08;97546.03;5107829;28;20043;-72
2023/11/01 03:21:13;;;;;;;5.53;3.65;;;;;;;11.47;89.44;97543.88;5068874;28;20110;-72
2023/11/01 03:23:38;;;;;;;5.53;3.50;;;;;;;11.47;89.54;97533.91;5063859;28;20028;-73
2023/11/01 03:26:04;;;;;;;4.18;3.58;;;;;;;11.43;89.09;97529.31;5082737;28;20081;-71
2023/11/01 03:28:29;;;;;;;6.63;4.03;;;;;;;11.51;89.66;97539.56;5075414;28;20131;-72
2023/11/01 03:30:58;;;;;;;6.45;4.00;;;;;;;11.52;89.35;97530.41;5112070;28;20076;-73
2023/11/01 03:33:24;;;;;;;7.32;4.45;;;;;;;11.37;89.46;97506.09;5080597;28;20483;-72
2023/11/01 03:35:49;;;;;;;6.93;4.28;;;;;;;11.38;89.42;97510.41;5081970;28;20027;-72
2023/11/01 03:38:15;;;;;;;8.77;4.13;;;;;;;11.51;89.11;97528.78;5070606;28;20078;-72
2023/11/01 03:40:40;;;;;;;4.90;4.30;;;;;;;11.45;89.57;97519.06;5086164;28;20023;-72
2023/11/01 03:43:05;;;;;;;5.65;4.00;;;;;;;11.48;89.26;97534.72;5063861;28;20036;-72
2023/11/01 03:45:31;;;;;;;5.63;3.83;;;;;;;11.29;90.05;97509.31;5094117;28;20031;-72
2023/11/01 03:47:56;;;;;;;6.70;3.70;;;;;;;11.38;90.31;97521.19;5072800;28;20584;-72
2023/11/01 03:50:22;;;;;;;7.07;4.10;;;;;;;11.19;89.81;97514.66;5074753;28;20028;-73
2023/11/01 03:52:47;;;;;;;5.90;4.45;;;;;;;11.22;90.36;97524.94;5076204;28;20028;-72
2023/11/01 03:55:13;;;;;;;7.22;4.35;;;;;;;11.23;90.44;97515.75;5049032;28;20161;-72
2023/11/01 03:57:38;;;;;;;7.32;4.72;;;;;;;11.08;90.26;97498.47;5087662;28;20043;-72
2023/11/01 04:00:04;;;;;;;7.07;4.35;;;;;;;11.25;89.74;97516.31;5068593;28;20019;-73
2023/11/01 04:02:30;;;;;;;8.82;4.50;;;;;;;11.21;90.22;97512.50;5093767;28;20040;-73
2023/11/01 04:04:55;;;;;;;8.80;4.40;;;;;;;11.27;89.96;97523.03;5084622;28;20058;-72
2023/11/01 04:07:20;;;;;;;6.22;4.15;;;;;;;11.21;90.41;97513.34;5063630;28;20491;-71
2023/11/01 04:09:46;;;;;;;6.43;4.10;;;;;;;11.15;90.20;97510.91;5076318;28;20519;-72
2023/11/01 04:12:11;;;;;;;4.75;4.07;;;;;;;11.24;90.47;97518.19;5082384;28;20050;-71
2023/11/01 04:14:36;;;;;;;7.72;4.40;;;;;;;11.23;90.36;97515.75;5072985;28;20027;-73
2023/11/01 04:17:02;;;;;;;7.97;4.30;;;;;;;11.22;90.56;97506.06;5109616;28;20051;-71
2023/11/01 04:19:27;;;;;;;5.72;4.22;;;;;;;11.22;90.42;97508.75;5090127;28;20106;-71
2023/11/01 04:21:53;;;;;;;5.82;4.32;;;;;;;11.22;90.21;97497.97;5076491;28;20115;-71
2023/11/01 04:24:19;;;;;;;8.18;4.32;;;;;;;11.22;90.81;97498.78;5093410;28;20139;-71
2023/11/01 04:26:45;;;;;;;6.68;4.63;;;;;;;11.23;90.60;97494.19;5077030;28;20032;-72
2023/11/01 04:29:10;;;;;;;7.57;4.40;;;;;;;11.20;90.29;97505.53;5066576;28;20038;-72
2023/11/01 04:31:35;;;;;;;5.45;4.70;;;;;;;11.16;90.82;97507.09;5070448;28;20078;-70
2023/11/01 04:34:01;;;;;;;6.30;4.72;;;;;;;11.15;90.62;97509.00;5101425;28;20114;-71
2023/11/01 04:36:26;;;;;;;5.38;4.88;;;;;;;11.11;90.74;97505.22;5079867;28;20407;-70
2023/11/01 04:38:53;;;;;;;6.57;4.38;;;;;;;11.13;90.90;97488.78;5101794;28;20107;-70
2023/11/01 04:41:19;;;;;;;7.18;4.70;;;;;;;11.11;90.76;97497.94;5086949;28;20032;-72
2023/11/01 04:43:45;;;;;;;8.68;5.22;;;;;;;11.10;90.48;97488.25;5053624;28;20030;-70
2023/11/01 04:46:10;;;;;;;8.38;5.38;;;;;;;11.08;90.86;97493.06;5094125;28;20028;-74
2023/11/01 04:48:35;;;;;;;7.38;4.85;;;;;;;11.13;90.99;97502.25;5070390;28;20467;-71
2023/11/01 04:51:01;;;;;;;7.13;4.63;;;;;;;10.96;91.33;97476.34;5083788;28;20044;-71
2023/11/01 04:53:29;;;;;;;9.75;5.63;;;;;;;11.02;91.26;97483.38;5105609;28;20020;-70
2023/11/01 04:55:55;;;;;;;7.75;5.63;;;;;;;11.05;91.14;97482.84;5111962;28;20092;-71
2023/11/01 04:58:21;;;;;;;6.57;5.47;;;;;;;11.05;91.18;97477.44;5097548;28;20031;-69
2023/11/01 05:00:47;;;;;;;6.10;5.32;;;;;;;11.04;91.51;97481.22;5097707;28;20622;-69
2023/11/01 05:03:13;;;;;;;7.88;5.20;;;;;;;11.06;91.43;97479.06;5080216;28;20051;-71
2023/11/01 05:05:38;;;;;;;7.90;5.70;;;;;;;11.07;91.64;97480.69;5101855;28;20039;-72
2023/11/01 05:08:04;;;;;;;8.40;5.75;;;;;;;11.03;91.80;97482.31;5087136;28;20020;-72
2023/11/01 05:10:29;;;;;;;7.38;6.00;;;;;;;10.98;92.05;97486.84;5080725;28;20036;-71
2023/11/01 05:12:57;;;;;;;7.82;6.75;;;;;;;11.01;91.94;97481.75;5070010;28;20062;-73
2023/11/01 05:15:22;;;;;;;12.45;9.27;;;;;;;11.06;91.57;97479.06;5098119;28;20051;-71
2023/11/01 05:17:48;;;;;;;18.90;12.25;;;;;;;10.89;92.06;97465.00;5097374;28;20028;-71
2023/11/01 05:20:13;;;;;;;7.85;6.93;;;;;;;10.94;91.66;97475.81;5107598;28;20161;-73
2023/11/01 05:22:38;;;;;;;7.63;6.00;;;;;;;11.04;91.11;97481.22;5088500;28;20091;-71
2023/11/01 05:25:13;;;;;;;6.85;6.13;;;;;;;11.06;91.81;97479.06;5109714;28;20405;-71
2023/11/01 05:27:39;;;;;;;10.18;6.10;;;;;;;11.01;92.39;97470.97;5071886;28;20036;-72
2023/11/01 05:30:06;;;;;;;11.98;7.28;;;;;;;10.90;92.29;97453.13;5083613;28;20027;-71
2023/11/01 05:32:31;;;;;;;11.10;8.32;;;;;;;11.00;92.09;97474.75;5086035;28;20036;-72
2023/11/01 05:34:56;;;;;;;9.90;8.05;;;;;;;11.03;92.18;97474.22;5091796;28;20016;-71
2023/11/01 05:37:22;;;;;;;9.55;8.48;;;;;;;10.96;92.13;97468.28;5087494;28;20040;-72
2023/11/01 05:39:47;;;;;;;10.90;9.55;;;;;;;11.00;92.14;97469.34;5114550;28;20160;-72
2023/11/01 05:42:12;;;;;;;10.32;8.38;;;;;;;10.99;92.32;97456.16;5103429;28;20119;-71
2023/11/01 05:44:38;;;;;;;12.40;8.68;;;;;;;10.99;92.13;97462.31;5111491;28;20041;-70
2023/11/01 05:47:03;;;;;;;9.82;8.68;;;;;;;10.97;92.44;97459.09;5103631;28;20036;-71
2023/11/01 05:49:29;;;;;;;9.75;8.77;;;;;;;10.99;92.11;97456.94;5093386;28;20023;-72
2023/11/01 05:51:54;;;;;;;11.50;9.48;;;;;;;10.93;92.37;97452.63;5085792;28;20081;-71
2023/11/01 05:54:20;;;;;;;10.60;9.30;;;;;;;10.97;92.79;97459.09;5088804;28;20036;-73
2023/11/01 05:56:45;;;;;;;8.63;7.82;;;;;;;10.85;92.30;97447.72;5075837;28;20115;-72
2023/11/01 05:59:10;;;;;;;10.57;8.00;;;;;;;10.90;92.45;97447.75;5107521;28;20024;-72
2023/11/01 06:01:36;;;;;;;8.95;8.05;;;;;;;10.96;92.13;97452.09;5102374;28;20044;-73
2023/11/01 06:04:02;;;;;;;10.10;7.68;;;;;;;10.97;92.25;97458.28;5092095;28;20015;-72
2023/11/01 06:06:27;;;;;;;9.23;7.22;;;;;;;10.86;92.32;97441.28;5085939;28;20063;-72
2023/11/01 06:08:53;;;;;;;8.95;7.82;;;;;;;10.99;91.95;97462.31;5059048;28;20051;-72
2023/11/01 06:11:22;;;;;;;12.25;7.90;;;;;;;10.99;92.01;97461.53;5095040;28;20028;-72
2023/11/01 06:13:47;;;;;;;9.05;7.72;;;;;;;10.99;92.23;97467.72;5106985;28;20020;-73
2023/11/01 06:16:13;;;;;;;9.70;8.35;;;;;;;11.00;91.74;97457.75;5085933;28;20050;-73
2023/11/01 06:18:39;;;;;;;8.68;7.78;;;;;;;10.99;91.88;97467.72;5078623;28;20518;-73
2023/11/01 06:21:05;;;;;;;9.20;7.93;;;;;;;11.03;91.86;97452.66;5085019;28;20102;-73
2023/11/01 06:23:31;;;;;;;9.75;7.47;;;;;;;11.04;91.79;97465.03;5088520;28;20537;-72
2023/11/01 06:25:58;;;;;;;10.07;7.20;;;;;;;11.05;91.84;97460.47;5069032;28;20032;-73
2023/11/01 06:28:23;;;;;;;9.35;7.43;;;;;;;10.98;91.75;97444.56;5082172;28;20479;-72
2023/11/01 06:30:49;;;;;;;8.95;7.28;;;;;;;11.02;91.54;97451.03;5084294;28;20036;-72
2023/11/01 06:33:15;;;;;;;11.40;7.10;;;;;;;11.09;91.02;97459.66;5078793;28;20082;-72
2023/11/01 06:35:40;;;;;;;8.55;6.88;;;;;;;11.03;91.85;97468.81;5102102;28;20043;-72
2023/11/01 06:38:06;;;;;;;10.07;6.60;;;;;;;11.05;91.16;97466.69;5092557;28;20098;-72
2023/11/01 06:40:31;;;;;;;9.02;7.15;;;;;;;10.99;91.43;97462.31;5102123;28;20146;-73
2023/11/01 06:42:57;;;;;;;9.90;7.75;;;;;;;11.08;91.30;97474.22;5092656;28;20467;-73
2023/11/01 06:45:23;;;;;;;9.55;7.57;;;;;;;11.04;91.58;97466.91;5112805;28;20035;-72
2023/11/01 06:47:48;;;;;;;9.82;7.95;;;;;;;11.01;91.31;97462.91;5065987;28;20067;-72
2023/11/01 06:50:14;;;;;;;10.80;8.30;;;;;;;11.04;91.54;97466.91;5086150;28;20118;-71
2023/11/01 06:52:44;;;;;;;8.70;7.88;;;;;;;11.07;91.38;97469.91;5077359;28;20130;-71
2023/11/01 06:55:12;;;;;;;11.20;7.95;;;;;;;11.09;90.94;97465.06;5057877;28;20093;-72
2023/11/01 06:57:38;;;;;;;12.93;9.05;;;;;;;11.05;90.66;97455.91;5074834;28;20032;-73
2023/11/01 07:00:05;;;;;;;12.90;9.98;;;;;;;11.19;90.70;97466.16;5053271;28;20031;-72
2023/11/01 07:02:30;;;;;;;10.75;8.77;;;;;;;11.17;90.87;97468.31;5100150;28;20027;-71
2023/11/01 07:04:55;;;;;;;14.82;9.38;;;;;;;11.13;90.87;97468.06;5082703;28;20134;-72
2023/11/01 07:07:22;;;;;;;11.60;9.45;;;;;;;11.18;91.10;97472.63;5057998;28;20028;-73
2023/11/01 07:09:47;;;;;;;14.65;9.77;;;;;;;11.20;90.93;97473.19;5057864;28;20043;-72
2023/11/01 07:12:13;;;;;;;11.77;10.05;;;;;;;11.25;90.20;97465.91;5071380;28;20020;-71
2023/11/01 07:14:38;;;;;;;10.93;9.25;;;;;;;11.20;90.43;97457.00;5091996;28;20044;-72
2023/11/01 07:17:04;;;;;;;10.02;9.02;;;;;;;11.28;90.53;97469.94;5109941;28;20030;-73
2023/11/01 07:19:29;;;;;;;9.88;8.50;;;;;;;11.25;90.45;97459.72;5068715;28;20054;-73
2023/11/01 07:21:55;;;;;;;10.90;9.25;;;;;;;11.28;89.76;97456.47;5108511;28;20089;-73
2023/11/01 07:24:20;;;;;;;11.18;9.35;;;;;;;11.31;90.36;97459.47;5083509;28;20085;-73
2023/11/01 07:26:45;;;;;;;10.95;9.15;;;;;;;11.37;89.71;97468.34;5087755;28;20047;-74
2023/11/01 07:29:11;;;;;;;15.60;10.00;;;;;;;11.40;89.69;97468.63;5084311;28;20071;-73
2023/11/01 07:31:36;;;;;;;9.30;8.20;;;;;;;11.43;89.91;97461.91;5066153;28;20036;-72
2023/11/01 07:34:02;;;;;;;9.35;8.25;;;;;;;11.49;89.55;97444.66;5083984;28;20039;-74
2023/11/01 07:36:27;;;;;;;11.07;8.73;;;;;;;11.64;89.48;97464.38;5059921;28;20772;-73
2023/11/01 07:38:52;;;;;;;9.40;8.15;;;;;;;11.56;89.46;97437.09;5067975;28;20040;-72
2023/11/01 07:41:18;;;;;;;10.45;8.25;;;;;;;11.63;89.22;97448.44;5070926;28;20023;-73
2023/11/01 07:43:43;;;;;;;10.25;8.02;;;;;;;11.63;88.86;97440.34;5082230;28;20031;-73
2023/11/01 07:46:09;;;;;;;10.85;7.75;;;;;;;11.64;89.12;97431.19;5109784;28;20023;-73
2023/11/01 07:48:35;;;;;;;11.23;7.82;;;;;;;11.87;88.87;97456.81;5082948;28;20103;-73
2023/11/01 07:51:02;;;;;;;9.15;8.07;;;;;;;11.87;88.69;97436.06;5080356;28;20372;-73
2023/11/01 07:53:27;;;;;;;7.90;7.13;;;;;;;12.01;88.44;97442.53;5111703;28;20069;-72
2023/11/01 07:55:53;;;;;;;9.68;7.55;;;;;;;12.07;87.75;97436.03;5080014;28;20032;-73
2023/11/01 07:58:18;;;;;;;8.02;7.22;;;;;;;12.07;88.00;97427.94;5103327;28;20036;-73
2023/11/01 08:00:44;;;;;;;11.50;7.65;;;;;;;12.11;87.41;97420.91;5106860;28;20015;-73
2023/11/01 08:03:09;;;;;;;7.88;6.20;;;;;;;12.21;87.14;97420.06;5067995;28;20123;-74
2023/11/01 08:05:35;;;;;;;8.40;6.20;;;;;;;12.27;86.57;97419.00;5071501;28;20015;-73
2023/11/01 08:08:00;;;;;;;6.93;5.25;;;;;;;12.07;86.04;97410.91;5077453;28;20550;-72
2023/11/01 08:10:25;;;;;;;8.68;5.93;;;;;;;12.12;86.38;97414.44;5074903;28;20023;-73
2023/11/01 08:12:51;;;;;;;10.10;6.60;;;;;;;12.27;86.26;97427.09;5069014;28;20403;-73
2023/11/01 08:15:16;;;;;;;9.18;5.68;;;;;;;12.16;86.30;97418.19;5075645;28;20031;-72
2023/11/01 08:17:42;;;;;;;8.10;5.78;;;;;;;12.23;85.96;97426.81;5095918;28;20035;-72
2023/11/01 08:20:08;;;;;;;5.45;4.40;;;;;;;12.21;85.39;97422.78;5102639;28;20063;-72
2023/11/01 08:22:34;;;;;;;5.55;4.50;;;;;;;12.22;85.07;97422.50;5106436;28;20580;-72
2023/11/01 08:25:00;;;;;;;7.97;4.25;;;;;;;12.28;85.17;97423.28;5073946;28;20031;-72
2023/11/01 08:27:25;;;;;;;6.32;4.47;;;;;;;12.22;84.59;97411.72;5105406;28;20394;-73
2023/11/01 08:29:51;;;;;;;7.47;3.92;;;;;;;12.28;84.40;97402.50;5091793;28;20037;-74
2023/11/01 08:32:16;;;;;;;6.93;4.07;;;;;;;12.45;84.17;97421.91;5104859;28;20036;-72
2023/11/01 08:34:41;;;;;;;6.63;3.72;;;;;;;12.34;83.86;97393.34;5092902;28;20126;-74
2023/11/01 08:37:07;;;;;;;6.30;3.90;;;;;;;12.57;84.28;97428.88;5075819;28;20079;-73
2023/11/01 08:39:32;;;;;;;7.78;4.00;;;;;;;12.56;83.19;97405.66;5086127;28;20031;-74
2023/11/01 08:42:01;;;;;;;6.32;3.42;;;;;;;12.74;83.43;97418.56;5115707;28;20035;-74
2023/11/01 08:44:26;;;;;;;5.88;3.88;;;;;;;12.75;82.57;97420.16;5081102;28;20024;-75
2023/11/01 08:46:51;;;;;;;5.45;3.58;;;;;;;12.72;82.65;97416.13;5060547;28;20137;-74
2023/11/01 08:49:17;;;;;;;4.45;3.55;;;;;;;12.83;82.20;97427.72;5060548;28;20059;-75
2023/11/01 08:51:42;;;;;;;6.18;3.83;;;;;;;12.87;82.00;97426.06;5095311;28;20046;-74
2023/11/01 08:54:11;;;;;;;5.60;4.00;;;;;;;12.86;82.31;97419.06;5058845;28;20020;-74
2023/11/01 08:56:36;;;;;;;7.15;3.92;;;;;;;12.74;82.64;97402.34;5115743;28;20042;-74
2023/11/01 08:59:03;;;;;;;6.90;3.88;;;;;;;12.85;82.30;97420.13;5097264;28;20027;-75
2023/11/01 09:01:29;;;;;;;8.15;4.30;;;;;;;12.87;81.96;97420.66;5088418;28;20491;-73
2023/11/01 09:03:55;;;;;;;5.70;4.32;;;;;;;12.97;82.40;97428.72;5078754;28;20024;-73
2023/11/01 09:06:20;;;;;;;8.70;5.88;;;;;;;12.99;81.75;97415.72;5080166;28;20031;-72
2023/11/01 09:08:45;;;;;;;5.60;4.50;;;;;;;12.97;81.33;97407.91;5066658;28;20027;-72
2023/11/01 09:11:11;;;;;;;5.30;3.92;;;;;;;13.12;81.36;97425.94;5106559;28;20040;-73
2023/11/01 09:13:36;;;;;;;9.02;4.18;;;;;;;13.03;81.66;97416.78;5091391;28;20068;-73
2023/11/01 09:16:01;;;;;;;4.72;3.60;;;;;;;13.15;81.00;97409.19;5091262;28;20540;-72
2023/11/01 09:18:27;;;;;;;7.35;4.00;;;;;;;13.27;81.24;97425.06;5096950;28;20019;-73
2023/11/01 09:20:52;;;;;;;5.90;4.00;;;;;;;13.20;80.60;97417.25;5106245;28;20395;-72
2023/11/01 09:23:18;;;;;;;4.45;3.55;;;;;;;13.26;80.86;97421.53;5089658;28;20032;-73
2023/11/01 09:25:44;;;;;;;8.20;4.50;;;;;;;13.35;80.43;97422.56;5068502;28;20086;-72
2023/11/01 09:28:09;;;;;;;5.40;4.10;;;;;;;13.41;80.52;97413.34;5112771;28;20693;-72
2023/11/01 09:30:35;;;;;;;6.30;3.67;;;;;;;13.40;80.30;97414.41;5084781;28;20054;-73
2023/11/01 09:33:01;;;;;;;6.60;3.45;;;;;;;13.32;80.00;97409.63;5066615;28;20103;-72
2023/11/01 09:35:26;;;;;;;4.93;3.40;;;;;;;13.36;79.84;97416.06;5071263;28;20043;-73
2023/11/01 09:37:53;;;;;;;5.85;3.63;;;;;;;13.57;79.58;97419.44;5089855;28;20145;-72
2023/11/01 09:40:19;;;;;;;5.82;3.65;;;;;;;13.58;79.15;97405.63;5067764;28;20173;-73
2023/11/01 09:42:46;;;;;;;5.10;3.88;;;;;;;13.71;78.51;97413.09;5099696;28;20081;-73
2023/11/01 09:45:12;;;;;;;5.68;3.30;;;;;;;13.78;78.37;97424.41;5067220;28;20091;-73
2023/11/01 09:47:39;;;;;;;6.35;3.47;;;;;;;13.84;78.37;97417.84;5063357;28;20065;-74
2023/11/01 09:50:06;;;;;;;4.88;3.70;;;;;;;13.98;77.75;97423.41;5088197;28;20543;-73
2023/11/01 09:52:31;;;;;;;7.63;3.17;;;;;;;13.96;77.94;97409.34;5089336;28;20376;-72
2023/11/01 09:54:57;;;;;;;6.28;3.15;;;;;;;13.88;77.97;97397.22;5083966;28;20032;-73
2023/11/01 09:57:24;;;;;;;4.90;3.33;;;;;;;14.04;77.55;97405.22;5064600;28;20056;-73
2023/11/01 09:59:50;;;;;;;5.22;2.90;;;;;;;14.01;76.72;97394.97;5063829;28;20059;-73
2023/11/01 10:02:16;;;;;;;7.78;3.20;;;;;;;14.12;77.36;97399.19;5077193;28;20467;-73
2023/11/01 10:04:42;;;;;;;10.68;5.53;;;;;;;14.18;77.03;97403.47;5095994;28;20032;-72
2023/11/01 10:07:07;;;;;;;5.47;4.03;;;;;;;14.24;77.13;97410.41;5066146;28;20077;-72
2023/11/01 10:09:35;;;;;;;7.90;3.40;;;;;;;14.09;77.20;97387.03;5106018;28;20395;-72
2023/11/01 10:12:00;;;;;;;9.68;6.25;;;;;;;14.21;76.73;97392.06;5089012;28;20092;-73
2023/11/01 10:14:31;;;;;;;6.82;3.25;;;;;;;14.30;76.65;97398.50;5058574;28;20531;-73
2023/11/01 10:16:57;;;;;;;5.88;2.88;;;;;;;14.29;76.59;97391.41;5089573;28;20526;-72
2023/11/01 10:19:26;;;;;;;4.07;2.88;;;;;;;14.26;75.79;97392.00;5093659;28;20475;-73
2023/11/01 10:21:52;;;;;;;4.97;2.83;;;;;;;14.25;75.99;97390.38;5078723;28;20035;-73
2023/11/01 10:24:18;;;;;;;5.80;2.30;;;;;;;14.23;75.69;97381.75;5085172;28;20048;-73
2023/11/01 10:26:44;;;;;;;6.90;2.90;;;;;;;14.20;76.01;97372.28;5088978;28;20036;-73
2023/11/01 10:29:09;;;;;;;6.47;2.83;;;;;;;14.36;75.92;97381.06;5093395;28;20043;-72
2023/11/01 10:31:34;;;;;;;4.75;2.55;;;;;;;14.33;75.64;97365.38;5091752;28;20113;-73
2023/11/01 10:34:12;;;;;;;5.80;2.55;;;;;;;14.43;75.58;97370.69;5095093;28;20058;-72
2023/11/01 10:36:53;;;;;;;5.35;2.83;;;;;;;14.44;75.57;97373.13;5113518;28;20043;-73
2023/11/01 10:39:20;;;;;;;4.65;2.20;;;;;;;14.61;75.62;97372.63;5081472;28;20038;-73
2023/11/01 10:41:50;;;;;;;3.47;2.38;;;;;;;14.67;75.31;97371.50;5071437;28;20024;-72
2023/11/01 10:44:17;;;;;;;5.55;3.20;;;;;;;14.70;75.05;97349.25;5041569;28;20103;-73
2023/11/01 10:46:43;;;;;;;6.25;2.70;;;;;;;14.84;74.93;97355.53;5070538;28;20107;-73
2023/11/01 10:49:09;;;;;;;6.18;3.33;;;;;;;14.82;74.75;97336.03;5069681;28;20134;-73
2023/11/01 10:51:36;;;;;;;7.32;2.30;;;;;;;14.93;74.47;97351.09;5072867;28;20019;-72
2023/11/01 10:54:02;;;;;;;4.63;1.75;;;;;;;14.83;73.61;97317.88;5090867;28;20036;-72
2023/11/01 10:56:27;;;;;;;3.03;2.00;;;;;;;15.02;73.02;97338.47;5069063;28;20023;-73
2023/11/01 10:58:54;;;;;;;4.10;2.00;;;;;;;14.98;72.66;97328.53;5072849;28;20051;-73
2023/11/01 11:01:24;;;;;;;5.93;1.77;;;;;;;14.97;72.07;97333.13;5052688;28;20123;-73
2023/11/01 11:03:53;;;;;;;2.42;1.60;;;;;;;15.03;72.20;97331.94;5071467;28;20407;-73
2023/11/01 11:06:24;;;;;;;7.82;2.78;;;;;;;15.18;71.71;97337.16;5083104;28;20019;-72
2023/11/01 11:09:22;;;;;;;3.30;1.83;;;;;;;15.21;71.36;97333.84;5063366;28;20068;-73
2023/11/01 11:12:16;;;;;;;4.45;2.10;;;;;;;15.23;71.28;97326.22;5071205;28;20035;-73
2023/11/01 11:14:47;;;;;;;5.18;1.75;;;;;;;15.17;70.93;97321.97;5086558;28;20035;-73
2023/11/01 11:17:14;;;;;;;3.25;1.55;;;;;;;15.19;71.71;97319.75;5113403;28;20494;-73
2023/11/01 11:20:11;;;;;;;6.82;1.75;;;;;;;15.40;71.51;97325.69;5094905;28;20019;-73
2023/11/01 11:23:01;;;;;;;3.65;2.10;;;;;;;15.45;71.68;97322.13;5084039;28;20050;-73
2023/11/01 11:25:45;;;;;;;6.00;2.25;;;;;;;15.47;70.71;97315.28;5087366;28;20107;-73
2023/11/01 11:28:17;;;;;;;3.45;1.85;;;;;;;15.56;70.77;97312.69;5094126;28;20502;-73